sensor_id;sensor_type;location;lat;lon;timestamp;P1;durP1;ratioP1;P2;durP2;ratioP2
34007;SDS011;41085;51.594;7.138;2022-08-21T00:03:35;1.45;;;0.50;;
34007;SDS011;41085;51.594;7.138;2022-08-21T00:07:36;1.50;;;0.40;;
34007;SDS011;41085;51.594;7.138;2022-08-21T00:11:37;0.70;;;0.50;;
34007;SDS011;41085;51.594;7.138;2022-08-21T00:15:39;0.80;;;0.40;;
34007;SDS011;41085;51.594;7.138;2022-08-21T00:19:40;0.88;;;0.52;;
34007;SDS011;41085;51.594;7.138;2022-08-21T00:23:42;2.60;;;0.50;;
34007;SDS011;41085;51.594;7.138;2022-08-21T00:27:43;0.87;;;0.60;;
34007;SDS011;41085;51.594;7.138;2022-08-21T00:31:44;0.80;;;0.30;;
34007;SDS011;41085;51.594;7.138;2022-08-21T00:35:45;1.13;;;0.40;;
34007;SDS011;41085;51.594;7.138;2022-08-21T00:39:46;2.17;;;0.63;;
34007;SDS011;41085;51.594;7.138;2022-08-21T00:43:47;3.13;;;0.65;;
34007;SDS011;41085;51.594;7.138;2022-08-21T00:47:48;2.53;;;0.50;;
34007;SDS011;41085;51.594;7.138;2022-08-21T00:51:51;0.60;;;0.37;;
34007;SDS011;41085;51.594;7.138;2022-08-21T00:55:55;3.73;;;0.80;;
34007;SDS011;41085;51.594;7.138;2022-08-21T00:59:57;4.40;;;0.50;;
34007;SDS011;41085;51.594;7.138;2022-08-21T01:04:00;1.33;;;0.50;;
34007;SDS011;41085;51.594;7.138;2022-08-21T01:08:01;1.05;;;0.57;;
34007;SDS011;41085;51.594;7.138;2022-08-21T01:12:02;1.88;;;0.50;;
34007;SDS011;41085;51.594;7.138;2022-08-21T01:16:04;1.42;;;0.52;;
34007;SDS011;41085;51.594;7.138;2022-08-21T01:20:09;1.13;;;0.60;;
34007;SDS011;41085;51.594;7.138;2022-08-21T01:24:11;1.00;;;0.50;;
34007;SDS011;41085;51.594;7.138;2022-08-21T01:28:13;1.50;;;0.50;;
34007;SDS011;41085;51.594;7.138;2022-08-21T01:32:18;1.00;;;0.60;;
34007;SDS011;41085;51.594;7.138;2022-08-21T01:36:20;2.42;;;0.85;;
34007;SDS011;41085;51.594;7.138;2022-08-21T01:40:22;0.60;;;0.40;;
34007;SDS011;41085;51.594;7.138;2022-08-21T01:44:23;1.27;;;0.60;;
34007;SDS011;41085;51.594;7.138;2022-08-21T01:48:24;0.90;;;0.50;;
34007;SDS011;41085;51.594;7.138;2022-08-21T01:52:25;1.20;;;0.57;;
34007;SDS011;41085;51.594;7.138;2022-08-21T01:56:25;0.60;;;0.50;;
34007;SDS011;41085;51.594;7.138;2022-08-21T02:00:27;2.33;;;0.57;;
34007;SDS011;41085;51.594;7.138;2022-08-21T02:04:28;1.60;;;0.50;;
34007;SDS011;41085;51.594;7.138;2022-08-21T02:08:30;0.95;;;0.47;;
34007;SDS011;41085;51.594;7.138;2022-08-21T02:12:31;2.07;;;0.80;;
34007;SDS011;41085;51.594;7.138;2022-08-21T02:16:32;0.90;;;0.60;;
34007;SDS011;41085;51.594;7.138;2022-08-21T02:20:34;1.40;;;0.70;;
34007;SDS011;41085;51.594;7.138;2022-08-21T02:24:38;1.80;;;0.87;;
34007;SDS011;41085;51.594;7.138;2022-08-21T02:28:39;2.70;;;0.50;;
34007;SDS011;41085;51.594;7.138;2022-08-21T02:32:42;1.92;;;0.50;;
34007;SDS011;41085;51.594;7.138;2022-08-21T02:36:43;2.05;;;0.40;;
34007;SDS011;41085;51.594;7.138;2022-08-21T02:40:44;0.53;;;0.47;;
34007;SDS011;41085;51.594;7.138;2022-08-21T02:44:46;1.13;;;0.63;;
34007;SDS011;41085;51.594;7.138;2022-08-21T02:48:47;1.38;;;0.60;;
34007;SDS011;41085;51.594;7.138;2022-08-21T02:52:47;0.73;;;0.50;;
34007;SDS011;41085;51.594;7.138;2022-08-21T02:56:49;0.60;;;0.50;;
34007;SDS011;41085;51.594;7.138;2022-08-21T03:00:50;1.40;;;0.90;;
34007;SDS011;41085;51.594;7.138;2022-08-21T03:04:51;0.80;;;0.60;;
34007;SDS011;41085;51.594;7.138;2022-08-21T03:08:51;2.60;;;0.57;;
34007;SDS011;41085;51.594;7.138;2022-08-21T03:12:52;1.53;;;0.80;;
34007;SDS011;41085;51.594;7.138;2022-08-21T03:16:54;1.00;;;0.52;;
34007;SDS011;41085;51.594;7.138;2022-08-21T03:20:54;2.40;;;0.93;;
34007;SDS011;41085;51.594;7.138;2022-08-21T03:24:55;1.17;;;0.73;;
34007;SDS011;41085;51.594;7.138;2022-08-21T03:28:57;0.88;;;0.60;;
34007;SDS011;41085;51.594;7.138;2022-08-21T03:32:58;0.70;;;0.50;;
34007;SDS011;41085;51.594;7.138;2022-08-21T03:36:59;1.67;;;0.63;;
34007;SDS011;41085;51.594;7.138;2022-08-21T03:41:00;1.93;;;0.60;;
34007;SDS011;41085;51.594;7.138;2022-08-21T03:45:02;0.60;;;0.60;;
34007;SDS011;41085;51.594;7.138;2022-08-21T03:49:03;0.93;;;0.50;;
34007;SDS011;41085;51.594;7.138;2022-08-21T03:53:03;1.50;;;0.60;;
34007;SDS011;41085;51.594;7.138;2022-08-21T03:57:04;1.27;;;0.60;;
34007;SDS011;41085;51.594;7.138;2022-08-21T04:01:05;0.90;;;0.60;;
34007;SDS011;41085;51.594;7.138;2022-08-21T04:05:06;1.23;;;0.70;;
34007;SDS011;41085;51.594;7.138;2022-08-21T04:09:07;1.10;;;0.70;;
34007;SDS011;41085;51.594;7.138;2022-08-21T04:13:08;1.23;;;0.60;;
34007;SDS011;41085;51.594;7.138;2022-08-21T04:17:08;1.65;;;0.63;;
34007;SDS011;41085;51.594;7.138;2022-08-21T04:21:10;2.03;;;0.65;;
34007;SDS011;41085;51.594;7.138;2022-08-21T04:25:12;2.15;;;0.70;;
34007;SDS011;41085;51.594;7.138;2022-08-21T04:29:14;1.17;;;0.70;;
34007;SDS011;41085;51.594;7.138;2022-08-21T04:33:15;3.03;;;0.70;;
34007;SDS011;41085;51.594;7.138;2022-08-21T04:37:16;1.17;;;0.85;;
34007;SDS011;41085;51.594;7.138;2022-08-21T04:41:16;1.92;;;0.70;;
34007;SDS011;41085;51.594;7.138;2022-08-21T04:45:22;1.40;;;0.70;;
34007;SDS011;41085;51.594;7.138;2022-08-21T04:53:59;1.30;;;0.80;;
34007;SDS011;41085;51.594;7.138;2022-08-21T04:58:06;1.07;;;0.70;;
34007;SDS011;41085;51.594;7.138;2022-08-21T05:02:09;1.20;;;0.73;;
34007;SDS011;41085;51.594;7.138;2022-08-21T05:06:10;1.27;;;0.80;;
34007;SDS011;41085;51.594;7.138;2022-08-21T05:10:13;1.45;;;0.73;;
34007;SDS011;41085;51.594;7.138;2022-08-21T05:14:15;4.30;;;0.98;;
34007;SDS011;41085;51.594;7.138;2022-08-21T05:18:16;2.37;;;0.90;;
34007;SDS011;41085;51.594;7.138;2022-08-21T05:22:20;6.80;;;0.83;;
34007;SDS011;41085;51.594;7.138;2022-08-21T05:26:24;1.60;;;0.90;;
34007;SDS011;41085;51.594;7.138;2022-08-21T05:30:25;1.35;;;0.75;;
34007;SDS011;41085;51.594;7.138;2022-08-21T05:34:25;1.63;;;0.90;;
34007;SDS011;41085;51.594;7.138;2022-08-21T05:38:26;1.77;;;0.90;;
34007;SDS011;41085;51.594;7.138;2022-08-21T05:42:28;1.40;;;1.00;;
34007;SDS011;41085;51.594;7.138;2022-08-21T05:46:28;1.38;;;0.98;;
34007;SDS011;41085;51.594;7.138;2022-08-21T05:50:29;1.53;;;0.90;;
34007;SDS011;41085;51.594;7.138;2022-08-21T05:54:31;1.33;;;0.90;;
34007;SDS011;41085;51.594;7.138;2022-08-21T05:58:32;1.30;;;0.80;;
34007;SDS011;41085;51.594;7.138;2022-08-21T06:02:33;1.60;;;0.90;;
34007;SDS011;41085;51.594;7.138;2022-08-21T06:06:34;1.30;;;0.90;;
34007;SDS011;41085;51.594;7.138;2022-08-21T06:10:35;6.68;;;1.00;;
34007;SDS011;41085;51.594;7.138;2022-08-21T06:14:35;2.03;;;1.10;;
34007;SDS011;41085;51.594;7.138;2022-08-21T06:18:37;1.90;;;1.00;;
34007;SDS011;41085;51.594;7.138;2022-08-21T06:22:39;3.88;;;1.10;;
34007;SDS011;41085;51.594;7.138;2022-08-21T06:26:48;3.33;;;1.40;;
34007;SDS011;41085;51.594;7.138;2022-08-21T06:30:49;4.40;;;1.17;;
34007;SDS011;41085;51.594;7.138;2022-08-21T06:34:50;1.20;;;1.00;;
34007;SDS011;41085;51.594;7.138;2022-08-21T06:38:51;2.50;;;1.02;;
34007;SDS011;41085;51.594;7.138;2022-08-21T06:42:52;3.25;;;1.20;;
34007;SDS011;41085;51.594;7.138;2022-08-21T06:46:52;3.22;;;1.20;;
34007;SDS011;41085;51.594;7.138;2022-08-21T06:50:53;2.77;;;1.20;;
34007;SDS011;41085;51.594;7.138;2022-08-21T06:54:55;3.00;;;1.30;;
34007;SDS011;41085;51.594;7.138;2022-08-21T06:59:00;2.10;;;0.90;;
34007;SDS011;41085;51.594;7.138;2022-08-21T07:03:01;4.23;;;1.20;;
34007;SDS011;41085;51.594;7.138;2022-08-21T07:07:02;2.70;;;0.93;;
34007;SDS011;41085;51.594;7.138;2022-08-21T07:11:04;1.60;;;0.90;;
34007;SDS011;41085;51.594;7.138;2022-08-21T07:15:13;2.00;;;1.10;;
34007;SDS011;41085;51.594;7.138;2022-08-21T07:19:14;1.02;;;0.70;;
34007;SDS011;41085;51.594;7.138;2022-08-21T07:23:18;3.57;;;1.00;;
34007;SDS011;41085;51.594;7.138;2022-08-21T07:27:24;1.20;;;0.80;;
34007;SDS011;41085;51.594;7.138;2022-08-21T07:31:25;4.53;;;0.80;;
34007;SDS011;41085;51.594;7.138;2022-08-21T07:35:26;1.80;;;0.80;;
34007;SDS011;41085;51.594;7.138;2022-08-21T07:39:27;2.10;;;1.15;;
34007;SDS011;41085;51.594;7.138;2022-08-21T07:43:29;3.10;;;1.00;;
34007;SDS011;41085;51.594;7.138;2022-08-21T07:47:30;1.03;;;0.60;;
34007;SDS011;41085;51.594;7.138;2022-08-21T07:51:30;2.10;;;0.70;;
34007;SDS011;41085;51.594;7.138;2022-08-21T07:55:33;2.15;;;0.77;;
34007;SDS011;41085;51.594;7.138;2022-08-21T07:59:34;2.53;;;0.60;;
34007;SDS011;41085;51.594;7.138;2022-08-21T08:03:35;3.92;;;0.82;;
34007;SDS011;41085;51.594;7.138;2022-08-21T08:07:35;2.30;;;0.50;;
34007;SDS011;41085;51.594;7.138;2022-08-21T08:11:37;4.40;;;0.60;;
34007;SDS011;41085;51.594;7.138;2022-08-21T08:15:41;4.50;;;0.70;;
34007;SDS011;41085;51.594;7.138;2022-08-21T08:19:41;2.00;;;0.70;;
34007;SDS011;41085;51.594;7.138;2022-08-21T08:23:42;1.40;;;0.67;;
34007;SDS011;41085;51.594;7.138;2022-08-21T08:27:44;1.02;;;0.50;;
34007;SDS011;41085;51.594;7.138;2022-08-21T08:31:45;3.95;;;0.70;;
34007;SDS011;41085;51.594;7.138;2022-08-21T08:35:47;2.07;;;0.87;;
34007;SDS011;41085;51.594;7.138;2022-08-21T08:39:49;1.08;;;0.50;;
34007;SDS011;41085;51.594;7.138;2022-08-21T08:43:50;2.67;;;0.40;;
34007;SDS011;41085;51.594;7.138;2022-08-21T08:47:56;2.40;;;0.50;;
34007;SDS011;41085;51.594;7.138;2022-08-21T08:52:20;1.00;;;0.32;;
34007;SDS011;41085;51.594;7.138;2022-08-21T08:56:31;2.90;;;0.70;;
34007;SDS011;41085;51.594;7.138;2022-08-21T09:00:33;2.42;;;0.35;;
34007;SDS011;41085;51.594;7.138;2022-08-21T09:04:34;2.97;;;0.50;;
34007;SDS011;41085;51.594;7.138;2022-08-21T09:17:10;0.80;;;0.50;;
34007;SDS011;41085;51.594;7.138;2022-08-21T09:26:18;0.90;;;0.30;;
34007;SDS011;41085;51.594;7.138;2022-08-21T09:30:24;1.60;;;0.40;;
34007;SDS011;41085;51.594;7.138;2022-08-21T09:34:28;0.82;;;0.30;;
34007;SDS011;41085;51.594;7.138;2022-08-21T09:38:32;0.43;;;0.30;;
34007;SDS011;41085;51.594;7.138;2022-08-21T09:42:36;0.60;;;0.20;;
34007;SDS011;41085;51.594;7.138;2022-08-21T09:46:37;2.50;;;0.50;;
34007;SDS011;41085;51.594;7.138;2022-08-21T09:50:37;1.25;;;0.40;;
34007;SDS011;41085;51.594;7.138;2022-08-21T09:54:39;1.73;;;0.20;;
34007;SDS011;41085;51.594;7.138;2022-08-21T09:58:41;1.80;;;0.30;;
34007;SDS011;41085;51.594;7.138;2022-08-21T10:02:44;0.60;;;0.10;;
34007;SDS011;41085;51.594;7.138;2022-08-21T10:06:45;0.50;;;0.20;;
34007;SDS011;41085;51.594;7.138;2022-08-21T10:10:49;1.42;;;0.20;;
34007;SDS011;41085;51.594;7.138;2022-08-21T10:14:59;0.70;;;0.27;;
34007;SDS011;41085;51.594;7.138;2022-08-21T10:51:35;0.70;;;0.10;;
34007;SDS011;41085;51.594;7.138;2022-08-21T10:56:28;1.45;;;0.20;;
34007;SDS011;41085;51.594;7.138;2022-08-21T11:00:32;1.80;;;0.20;;
34007;SDS011;41085;51.594;7.138;2022-08-21T11:05:05;0.60;;;0.30;;
34007;SDS011;41085;51.594;7.138;2022-08-21T11:09:14;0.37;;;0.17;;
34007;SDS011;41085;51.594;7.138;2022-08-21T11:13:19;1.80;;;0.20;;
34007;SDS011;41085;51.594;7.138;2022-08-21T11:17:35;0.70;;;0.20;;
34007;SDS011;41085;51.594;7.138;2022-08-21T11:21:48;0.20;;;0.10;;
34007;SDS011;41085;51.594;7.138;2022-08-21T11:26:11;0.83;;;0.20;;
34007;SDS011;41085;51.594;7.138;2022-08-21T11:30:17;2.20;;;0.20;;
34007;SDS011;41085;51.594;7.138;2022-08-21T11:42:50;0.60;;;0.20;;
34007;SDS011;41085;51.594;7.138;2022-08-21T11:47:35;0.60;;;0.10;;
34007;SDS011;41085;51.594;7.138;2022-08-21T11:52:17;0.85;;;0.20;;
34007;SDS011;41085;51.594;7.138;2022-08-21T11:56:19;1.70;;;0.10;;
34007;SDS011;41085;51.594;7.138;2022-08-21T12:00:47;0.70;;;0.13;;
34007;SDS011;41085;51.594;7.138;2022-08-21T12:04:53;1.85;;;0.13;;
34007;SDS011;41085;51.594;7.138;2022-08-21T12:08:58;1.10;;;0.10;;
34007;SDS011;41085;51.594;7.138;2022-08-21T12:13:06;0.60;;;0.20;;
34007;SDS011;41085;51.594;7.138;2022-08-21T12:17:22;2.50;;;0.22;;
34007;SDS011;41085;51.594;7.138;2022-08-21T12:21:25;0.10;;;0.10;;
34007;SDS011;41085;51.594;7.138;2022-08-21T12:25:35;0.43;;;0.10;;
34007;SDS011;41085;51.594;7.138;2022-08-21T12:29:37;0.60;;;0.20;;
34007;SDS011;41085;51.594;7.138;2022-08-21T12:33:39;0.82;;;0.22;;
34007;SDS011;41085;51.594;7.138;2022-08-21T12:37:43;0.80;;;0.20;;
34007;SDS011;41085;51.594;7.138;2022-08-21T12:42:16;0.80;;;0.10;;
34007;SDS011;41085;51.594;7.138;2022-08-21T12:46:34;0.90;;;0.20;;
34007;SDS011;41085;51.594;7.138;2022-08-21T12:50:55;0.65;;;0.10;;
34007;SDS011;41085;51.594;7.138;2022-08-21T12:55:15;1.75;;;0.20;;
34007;SDS011;41085;51.594;7.138;2022-08-21T12:59:36;0.60;;;0.10;;
34007;SDS011;41085;51.594;7.138;2022-08-21T13:03:44;0.85;;;0.20;;
34007;SDS011;41085;51.594;7.138;2022-08-21T13:07:46;1.30;;;0.17;;
34007;SDS011;41085;51.594;7.138;2022-08-21T13:11:56;1.83;;;0.20;;
34007;SDS011;41085;51.594;7.138;2022-08-21T13:16:06;2.27;;;0.30;;
34007;SDS011;41085;51.594;7.138;2022-08-21T13:20:08;0.47;;;0.10;;
34007;SDS011;41085;51.594;7.138;2022-08-21T13:28:36;0.40;;;0.10;;
34007;SDS011;41085;51.594;7.138;2022-08-21T13:32:42;0.60;;;0.10;;
34007;SDS011;41085;51.594;7.138;2022-08-21T13:36:52;0.30;;;0.10;;
34007;SDS011;41085;51.594;7.138;2022-08-21T13:41:05;0.10;;;0.10;;
34007;SDS011;41085;51.594;7.138;2022-08-21T13:45:22;0.60;;;0.10;;
34007;SDS011;41085;51.594;7.138;2022-08-21T13:49:35;2.92;;;0.25;;
34007;SDS011;41085;51.594;7.138;2022-08-21T13:57:58;0.30;;;0.20;;
34007;SDS011;41085;51.594;7.138;2022-08-21T14:02:19;1.90;;;0.15;;
34007;SDS011;41085;51.594;7.138;2022-08-21T14:06:23;0.25;;;0.10;;
34007;SDS011;41085;51.594;7.138;2022-08-21T14:10:27;0.30;;;0.10;;
34007;SDS011;41085;51.594;7.138;2022-08-21T14:14:29;1.70;;;0.30;;
34007;SDS011;41085;51.594;7.138;2022-08-21T14:18:33;0.55;;;0.10;;
34007;SDS011;41085;51.594;7.138;2022-08-21T14:22:53;0.60;;;0.10;;
34007;SDS011;41085;51.594;7.138;2022-08-21T14:27:02;0.35;;;0.20;;
34007;SDS011;41085;51.594;7.138;2022-08-21T14:31:29;0.33;;;0.17;;
34007;SDS011;41085;51.594;7.138;2022-08-21T14:35:39;0.30;;;0.13;;
34007;SDS011;41085;51.594;7.138;2022-08-21T14:39:40;0.40;;;0.10;;
34007;SDS011;41085;51.594;7.138;2022-08-21T14:43:48;0.20;;;0.10;;
34007;SDS011;41085;51.594;7.138;2022-08-21T14:47:58;0.10;;;0.03;;
34007;SDS011;41085;51.594;7.138;2022-08-21T14:52:00;0.20;;;0.10;;
34007;SDS011;41085;51.594;7.138;2022-08-21T14:57:07;0.30;;;0.10;;
34007;SDS011;41085;51.594;7.138;2022-08-21T15:01:10;0.30;;;0.10;;
34007;SDS011;41085;51.594;7.138;2022-08-21T15:05:40;0.70;;;0.30;;
34007;SDS011;41085;51.594;7.138;2022-08-21T15:09:47;0.20;;;0.10;;
34007;SDS011;41085;51.594;7.138;2022-08-21T15:13:49;1.55;;;0.20;;
34007;SDS011;41085;51.594;7.138;2022-08-21T15:17:57;0.13;;;0.10;;
34007;SDS011;41085;51.594;7.138;2022-08-21T15:22:59;0.20;;;0.10;;
34007;SDS011;41085;51.594;7.138;2022-08-21T15:27:00;0.10;;;0.10;;
34007;SDS011;41085;51.594;7.138;2022-08-21T15:35:34;0.60;;;0.10;;
34007;SDS011;41085;51.594;7.138;2022-08-21T15:40:10;0.50;;;0.10;;
34007;SDS011;41085;51.594;7.138;2022-08-21T15:44:19;0.90;;;0.10;;
34007;SDS011;41085;51.594;7.138;2022-08-21T15:48:20;0.10;;;0.10;;
34007;SDS011;41085;51.594;7.138;2022-08-21T15:52:35;0.20;;;0.05;;
34007;SDS011;41085;51.594;7.138;2022-08-21T15:56:40;0.30;;;0.10;;
34007;SDS011;41085;51.594;7.138;2022-08-21T16:00:51;0.40;;;0.10;;
34007;SDS011;41085;51.594;7.138;2022-08-21T16:05:05;0.00;;;0.00;;
34007;SDS011;41085;51.594;7.138;2022-08-21T16:09:29;1.20;;;0.10;;
34007;SDS011;41085;51.594;7.138;2022-08-21T16:13:32;0.10;;;0.03;;
34007;SDS011;41085;51.594;7.138;2022-08-21T16:17:38;0.28;;;0.10;;
34007;SDS011;41085;51.594;7.138;2022-08-21T16:22:09;0.10;;;0.10;;
34007;SDS011;41085;51.594;7.138;2022-08-21T16:27:09;0.05;;;0.05;;
34007;SDS011;41085;51.594;7.138;2022-08-21T16:31:57;0.20;;;0.10;;
34007;SDS011;41085;51.594;7.138;2022-08-21T16:40:44;0.30;;;0.10;;
34007;SDS011;41085;51.594;7.138;2022-08-21T16:44:56;0.20;;;0.00;;
34007;SDS011;41085;51.594;7.138;2022-08-21T16:49:03;0.20;;;0.10;;
34007;SDS011;41085;51.594;7.138;2022-08-21T16:53:04;0.35;;;0.10;;
34007;SDS011;41085;51.594;7.138;2022-08-21T16:57:26;0.70;;;0.10;;
34007;SDS011;41085;51.594;7.138;2022-08-21T17:01:28;0.25;;;0.20;;
34007;SDS011;41085;51.594;7.138;2022-08-21T17:06:15;0.00;;;0.00;;
34007;SDS011;41085;51.594;7.138;2022-08-21T17:10:17;0.10;;;0.10;;
34007;SDS011;41085;51.594;7.138;2022-08-21T17:14:23;0.10;;;0.10;;
34007;SDS011;41085;51.594;7.138;2022-08-21T17:18:24;0.80;;;0.10;;
34007;SDS011;41085;51.594;7.138;2022-08-21T17:22:31;0.28;;;0.10;;
34007;SDS011;41085;51.594;7.138;2022-08-21T17:27:17;1.25;;;0.10;;
34007;SDS011;41085;51.594;7.138;2022-08-21T17:31:29;0.40;;;0.10;;
34007;SDS011;41085;51.594;7.138;2022-08-21T17:35:56;0.63;;;0.10;;
34007;SDS011;41085;51.594;7.138;2022-08-21T17:44:59;0.88;;;0.10;;
34007;SDS011;41085;51.594;7.138;2022-08-21T17:49:11;1.20;;;0.20;;
34007;SDS011;41085;51.594;7.138;2022-08-21T17:53:14;0.80;;;0.10;;
34007;SDS011;41085;51.594;7.138;2022-08-21T18:02:13;0.13;;;0.10;;
34007;SDS011;41085;51.594;7.138;2022-08-21T18:06:39;0.30;;;0.10;;
34007;SDS011;41085;51.594;7.138;2022-08-21T18:10:41;0.87;;;0.27;;
34007;SDS011;41085;51.594;7.138;2022-08-21T18:19:40;0.28;;;0.15;;
34007;SDS011;41085;51.594;7.138;2022-08-21T18:23:47;2.00;;;0.10;;
34007;SDS011;41085;51.594;7.138;2022-08-21T18:28:34;0.20;;;0.00;;
34007;SDS011;41085;51.594;7.138;2022-08-21T18:38:40;0.50;;;0.20;;
34007;SDS011;41085;51.594;7.138;2022-08-21T18:43:37;0.33;;;0.10;;
34007;SDS011;41085;51.594;7.138;2022-08-21T18:47:40;1.23;;;0.10;;
34007;SDS011;41085;51.594;7.138;2022-08-21T18:52:43;0.47;;;0.10;;
34007;SDS011;41085;51.594;7.138;2022-08-21T18:57:29;0.30;;;0.20;;
34007;SDS011;41085;51.594;7.138;2022-08-21T19:01:53;0.27;;;0.27;;
34007;SDS011;41085;51.594;7.138;2022-08-21T19:07:22;0.40;;;0.30;;
34007;SDS011;41085;51.594;7.138;2022-08-21T19:22:47;1.40;;;0.50;;
34007;SDS011;41085;51.594;7.138;2022-08-21T19:27:46;0.20;;;0.20;;
34007;SDS011;41085;51.594;7.138;2022-08-21T19:31:47;1.10;;;0.28;;
34007;SDS011;41085;51.594;7.138;2022-08-21T19:35:48;0.57;;;0.30;;
34007;SDS011;41085;51.594;7.138;2022-08-21T20:00:23;2.80;;;1.00;;
34007;SDS011;41085;51.594;7.138;2022-08-21T20:04:59;2.13;;;0.90;;
34007;SDS011;41085;51.594;7.138;2022-08-21T20:09:01;0.40;;;0.30;;
34007;SDS011;41085;51.594;7.138;2022-08-21T20:13:02;0.80;;;0.43;;
34007;SDS011;41085;51.594;7.138;2022-08-21T20:17:07;1.10;;;0.33;;
34007;SDS011;41085;51.594;7.138;2022-08-21T20:21:10;1.80;;;0.32;;
34007;SDS011;41085;51.594;7.138;2022-08-21T20:25:12;0.73;;;0.40;;
34007;SDS011;41085;51.594;7.138;2022-08-21T20:29:12;0.27;;;0.20;;
34007;SDS011;41085;51.594;7.138;2022-08-21T20:33:13;1.10;;;0.30;;
34007;SDS011;41085;51.594;7.138;2022-08-21T20:37:14;0.57;;;0.30;;
34007;SDS011;41085;51.594;7.138;2022-08-21T20:41:14;0.70;;;0.22;;
34007;SDS011;41085;51.594;7.138;2022-08-21T20:45:17;1.10;;;0.30;;
34007;SDS011;41085;51.594;7.138;2022-08-21T20:49:33;1.48;;;0.40;;
34007;SDS011;41085;51.594;7.138;2022-08-21T20:53:44;0.70;;;0.30;;
34007;SDS011;41085;51.594;7.138;2022-08-21T20:58:05;0.80;;;0.35;;
34007;SDS011;41085;51.594;7.138;2022-08-21T21:06:32;0.90;;;0.40;;
34007;SDS011;41085;51.594;7.138;2022-08-21T21:14:50;1.45;;;0.32;;
34007;SDS011;41085;51.594;7.138;2022-08-21T21:18:57;0.60;;;0.20;;
34007;SDS011;41085;51.594;7.138;2022-08-21T21:23:08;0.60;;;0.40;;
34007;SDS011;41085;51.594;7.138;2022-08-21T21:31:33;1.13;;;0.40;;
34007;SDS011;41085;51.594;7.138;2022-08-21T21:35:46;2.88;;;0.40;;
34007;SDS011;41085;51.594;7.138;2022-08-21T21:53:29;1.50;;;0.30;;
34007;SDS011;41085;51.594;7.138;2022-08-21T22:06:14;2.55;;;0.60;;
34007;SDS011;41085;51.594;7.138;2022-08-21T22:10:33;1.00;;;0.40;;
34007;SDS011;41085;51.594;7.138;2022-08-21T22:14:43;0.50;;;0.30;;
34007;SDS011;41085;51.594;7.138;2022-08-21T22:18:47;1.30;;;0.32;;
34007;SDS011;41085;51.594;7.138;2022-08-21T22:23:02;1.60;;;0.40;;
34007;SDS011;41085;51.594;7.138;2022-08-21T22:27:07;0.60;;;0.32;;
34007;SDS011;41085;51.594;7.138;2022-08-21T22:31:24;0.60;;;0.47;;
34007;SDS011;41085;51.594;7.138;2022-08-21T22:35:31;0.47;;;0.20;;
34007;SDS011;41085;51.594;7.138;2022-08-21T22:39:34;2.00;;;0.30;;
34007;SDS011;41085;51.594;7.138;2022-08-21T22:43:36;1.83;;;0.40;;
34007;SDS011;41085;51.594;7.138;2022-08-21T22:47:38;1.67;;;0.50;;
34007;SDS011;41085;51.594;7.138;2022-08-21T22:51:44;0.45;;;0.25;;
34007;SDS011;41085;51.594;7.138;2022-08-21T22:55:53;0.93;;;0.40;;
34007;SDS011;41085;51.594;7.138;2022-08-21T23:04:16;0.90;;;0.40;;
34007;SDS011;41085;51.594;7.138;2022-08-21T23:08:24;1.05;;;0.40;;
34007;SDS011;41085;51.594;7.138;2022-08-21T23:12:38;1.73;;;0.45;;
34007;SDS011;41085;51.594;7.138;2022-08-21T23:16:54;1.40;;;0.30;;
34007;SDS011;41085;51.594;7.138;2022-08-21T23:25:24;0.90;;;0.30;;
34007;SDS011;41085;51.594;7.138;2022-08-21T23:34:11;0.82;;;0.40;;
34007;SDS011;41085;51.594;7.138;2022-08-21T23:50:59;2.40;;;0.30;;
34007;SDS011;41085;51.594;7.138;2022-08-21T23:55:29;1.52;;;0.30;;
